Time;durP1;ratioP1;P1;durP2;ratioP2;P2;SDS_P1;SDS_P2;PMS_P1;PMS_P2;Temp;Humidity;BMP_temperature;BMP_pressure;BME280_temperature;BME280_humidity;BME280_pressure;Samples;Min_cycle;Max_cycle;Signal;HPM_P1;HPM_P2
2022/04/08 00:02:07;;;;;;;;;;;;;;;;;;5065314;28;19940;-69
2022/04/08 00:04:33;;;;;;;;;;;;;;;;;;5066501;28;19962;-69
2022/04/08 00:06:59;;;;;;;;;;;;;;;;;;5067193;28;20010;-69
2022/04/08 00:09:25;;;;;;;;;;;;;;;;;;5064708;28;19925;-69
2022/04/08 00:11:52;;;;;;;;;;;;;;;;;;5071704;28;19928;-68
2022/04/08 00:14:18;;;;;;;;;;;;;;;;;;5068713;28;19951;-69
2022/04/08 00:16:44;;;;;;;;;;;;;;;;;;5071429;28;20029;-66
2022/04/08 00:19:10;;;;;;;;;;;;;;;;;;5064783;28;20110;-65
2022/04/08 00:21:37;;;;;;;;;;;;;;;;;;5061247;28;20289;-65
2022/04/08 00:24:03;;;;;;;;;;;;;;;;;;5070443;28;19959;-64
2022/04/08 00:26:29;;;;;;;;;;;;;;;;;;5072199;28;19924;-63
2022/04/08 00:28:55;;;;;;;;;;;;;;;;;;5062668;28;19931;-63
2022/04/08 00:31:21;;;;;;;;;;;;;;;;;;5062783;28;19991;-62
2022/04/08 00:33:48;;;;;;;;;;;;;;;;;;5066117;28;19965;-63
2022/04/08 00:36:14;;;;;;;;;;;;;;;;;;5058775;28;20443;-63
2022/04/08 00:38:40;;;;;;;;;;;;;;;;;;5070630;28;19931;-63
2022/04/08 00:41:06;;;;;;;;;;;;;;;;;;5081513;28;19932;-63
2022/04/08 00:43:32;;;;;;;;;;;;;;;;;;5080939;28;19935;-63
2022/04/08 00:45:58;;;;;;;;;;;;;;;;;;5086392;28;19925;-63
2022/04/08 00:48:24;;;;;;;;;;;;;;;;;;5072143;28;19924;-63
2022/04/08 00:50:51;;;;;;;;;;;;;;;;;;5070686;28;20208;-63
2022/04/08 00:53:17;;;;;;;;;;;;;;;;;;5075979;28;19958;-64
2022/04/08 00:55:43;;;;;;;;;;;;;;;;;;5080523;28;19925;-61
2022/04/08 00:58:09;;;;;;;;;;;;;;;;;;5079201;28;19925;-63
2022/04/08 01:00:35;;;;;;;;;;;;;;;;;;5077933;28;19955;-61
2022/04/08 01:03:01;;;;;;;;;;;;;;;;;;5075881;28;20232;-62
2022/04/08 01:05:27;;;;;;;;;;;;;;;;;;5076478;28;20386;-61
2022/04/08 01:07:54;;;;;;;;;;;;;;;;;;5075817;28;19935;-61
2022/04/08 01:10:20;;;;;;;;;;;;;;;;;;5056782;28;19950;-61
2022/04/08 01:12:49;;;;;;;;;;;;;;;;;;5057045;28;19935;-62
2022/04/08 01:15:15;;;;;;;;;;;;;;;;;;5069749;28;20321;-62
2022/04/08 01:17:41;;;;;;;;;;;;;;;;;;5068605;28;19941;-62
2022/04/08 01:20:07;;;;;;;;;;;;;;;;;;5057843;28;19977;-62
2022/04/08 01:22:33;;;;;;;;;;;;;;;;;;5063487;28;20296;-62
2022/04/08 01:25:00;;;;;;;;;;;;;;;;;;5060989;28;20156;-62
2022/04/08 01:27:26;;;;;;;;;;;;;;;;;;5062133;28;19939;-62
2022/04/08 01:29:52;;;;;;;;;;;;;;;;;;5063551;28;19969;-64
2022/04/08 01:32:18;;;;;;;;;;;;;;;;;;5055854;28;19963;-64
2022/04/08 01:34:45;;;;;;;;;;;;;;;;;;5056210;28;19976;-64
2022/04/08 01:37:11;;;;;;;;;;;;;;;;;;5067616;28;19954;-65
2022/04/08 01:39:38;;;;;;;;;;;;;;;;;;5069403;28;20440;-64
2022/04/08 01:42:04;;;;;;;;;;;;;;;;;;5062874;28;19990;-64
2022/04/08 01:44:30;;;;;;;;;;;;;;;;;;5057657;28;19980;-64
2022/04/08 01:46:57;;;;;;;;;;;;;;;;;;5067762;28;19965;-62
2022/04/08 01:49:23;;;;;;;;;;;;;;;;;;5067906;28;20379;-66
2022/04/08 01:51:49;;;;;;;;;;;;;;;;;;5065797;28;19980;-66
2022/04/08 01:54:15;;;;;;;;;;;;;;;;;;5065347;28;19979;-68
2022/04/08 01:56:41;;;;;;;;;;;;;;;;;;5067017;28;19962;-67
2022/04/08 01:59:07;;;;;;;;;;;;;;;;;;5063460;28;19955;-65
2022/04/08 02:01:33;;;;;;;;;;;;;;;;;;5069417;28;20088;-65
2022/04/08 02:04:00;;;;;;;;;;;;;;;;;;5060426;28;19976;-64
2022/04/08 02:06:26;;;;;;;;;;;;;;;;;;5061494;28;20062;-64
2022/04/08 02:08:53;;;;;;;;;;;;;;;;;;5069298;28;19946;-64
2022/04/08 02:11:20;;;;;;;;;;;;;;;;;;5068405;28;19969;-64
2022/04/08 02:13:46;;;;;;;;;;;;;;;;;;5071216;28;19960;-64
2022/04/08 02:16:12;;;;;;;;;;;;;;;;;;5066184;28;20218;-64
2022/04/08 02:18:38;;;;;;;;;;;;;;;;;;5069930;28;20424;-64
2022/04/08 02:21:04;;;;;;;;;;;;;;;;;;5067483;28;20465;-66
2022/04/08 02:23:30;;;;;;;;;;;;;;;;;;5069872;28;20063;-64
2022/04/08 02:25:57;;;;;;;;;;;;;;;;;;5070264;28;20369;-64
2022/04/08 02:28:23;;;;;;;;;;;;;;;;;;5064369;28;20350;-65
2022/04/08 02:30:52;;;;;;;;;;;;;;;;;;5072739;28;19954;-65
2022/04/08 02:33:18;;;;;;;;;;;;;;;;;;5065453;28;20033;-65
2022/04/08 02:35:45;;;;;;;;;;;;;;;;;;5069500;28;19973;-65
2022/04/08 02:38:11;;;;;;;;;;;;;;;;;;5065275;28;19970;-65
2022/04/08 02:40:38;;;;;;;;;;;;;;;;;;5071485;28;19977;-65
2022/04/08 02:43:04;;;;;;;;;;;;;;;;;;5064058;28;20059;-65
2022/04/08 02:45:30;;;;;;;;;;;;;;;;;;5066243;28;19974;-65
2022/04/08 02:47:56;;;;;;;;;;;;;;;;;;5069663;28;19957;-66
2022/04/08 02:50:23;;;;;;;;;;;;;;;;;;5074958;28;19959;-65
2022/04/08 02:52:49;;;;;;;;;;;;;;;;;;5079445;28;20313;-65
2022/04/08 02:55:15;;;;;;;;;;;;;;;;;;5078078;28;19970;-64
2022/04/08 02:57:45;;;;;;;;;;;;;;;;;;5088141;28;19966;-65
2022/04/08 03:00:11;;;;;;;;;;;;;;;;;;5073137;28;19964;-65
2022/04/08 03:02:37;;;;;;;;;;;;;;;;;;5063091;28;19971;-64
2022/04/08 03:05:06;;;;;;;;;;;;;;;;;;5070602;28;19964;-64
2022/04/08 03:07:32;;;;;;;;;;;;;;;;;;5069369;28;19952;-65
2022/04/08 03:09:58;;;;;;;;;;;;;;;;;;5063181;28;19949;-64
2022/04/08 03:12:24;;;;;;;;;;;;;;;;;;5069495;28;20420;-64
2022/04/08 03:14:50;;;;;;;;;;;;;;;;;;5069926;28;19967;-63
2022/04/08 03:17:17;;;;;;;;;;;;;;;;;;5070794;28;19946;-65
2022/04/08 03:19:43;;;;;;;;;;;;;;;;;;5063451;28;19942;-64
2022/04/08 03:22:09;;;;;;;;;;;;;;;;;;5059739;28;19965;-64
2022/04/08 03:24:35;;;;;;;;;;;;;;;;;;5066875;28;19981;-64
2022/04/08 03:27:01;;;;;;;;;;;;;;;;;;5066132;28;19956;-69
2022/04/08 03:29:27;;;;;;;;;;;;;;;;;;5072820;28;20544;-66
2022/04/08 03:31:54;;;;;;;;;;;;;;;;;;5071685;28;20328;-66
2022/04/08 03:34:20;;;;;;;;;;;;;;;;;;5070568;28;19983;-66
2022/04/08 03:36:47;;;;;;;;;;;;;;;;;;5084704;28;20032;-66
2022/04/08 03:39:13;;;;;;;;;;;;;;;;;;5087270;28;19974;-69
2022/04/08 03:41:39;;;;;;;;;;;;;;;;;;5091468;28;20193;-68
2022/04/08 03:44:05;;;;;;;;;;;;;;;;;;5083554;28;19954;-67
2022/04/08 03:46:32;;;;;;;;;;;;;;;;;;5080907;28;19963;-67
2022/04/08 03:48:58;;;;;;;;;;;;;;;;;;5084811;28;19966;-68
2022/04/08 03:51:24;;;;;;;;;;;;;;;;;;5090811;28;19966;-69
2022/04/08 03:53:50;;;;;;;;;;;;;;;;;;5089057;28;19995;-69
2022/04/08 03:56:17;;;;;;;;;;;;;;;;;;5082693;28;19961;-69
2022/04/08 03:58:43;;;;;;;;;;;;;;;;;;5068834;28;19949;-66
2022/04/08 04:01:09;;;;;;;;;;;;;;;;;;5067823;28;20004;-67
2022/04/08 04:03:35;;;;;;;;;;;;;;;;;;5066942;28;19945;-67
2022/04/08 04:06:03;;;;;;;;;;;;;;;;;;5070483;28;19966;-67
2022/04/08 04:08:29;;;;;;;;;;;;;;;;;;5070827;28;19966;-67
2022/04/08 04:10:55;;;;;;;;;;;;;;;;;;5064958;28;19953;-68
2022/04/08 04:13:21;;;;;;;;;;;;;;;;;;5064837;28;19948;-68
2022/04/08 04:15:47;;;;;;;;;;;;;;;;;;5068788;28;19980;-64
2022/04/08 04:18:14;;;;;;;;;;;;;;;;;;5067992;28;20041;-67
2022/04/08 04:20:40;;;;;;;;;;;;;;;;;;5058689;28;20022;-65
2022/04/08 04:23:06;;;;;;;;;;;;;;;;;;5065173;28;19938;-65
2022/04/08 04:25:32;;;;;;;;;;;;;;;;;;5063129;28;19964;-65
2022/04/08 04:27:58;;;;;;;;;;;;;;;;;;5064828;28;20039;-66
2022/04/08 04:30:27;;;;;;;;;;;;;;;;;;5064981;28;19948;-66
2022/04/08 04:32:53;;;;;;;;;;;;;;;;;;5070659;28;19961;-66
2022/04/08 04:35:20;;;;;;;;;;;;;;;;;;5067418;28;19971;-65
2022/04/08 04:37:46;;;;;;;;;;;;;;;;;;5064744;28;20336;-65
2022/04/08 04:40:12;;;;;;;;;;;;;;;;;;5067792;28;19968;-65
2022/04/08 04:42:38;;;;;;;;;;;;;;;;;;5064374;28;19992;-65
2022/04/08 04:45:04;;;;;;;;;;;;;;;;;;5067969;28;19979;-68
2022/04/08 04:47:30;;;;;;;;;;;;;;;;;;5063717;28;19971;-65
2022/04/08 04:49:56;;;;;;;;;;;;;;;;;;5061515;28;20001;-72
2022/04/08 04:52:23;;;;;;;;;;;;;;;;;;5070164;28;20056;-68
2022/04/08 04:54:49;;;;;;;;;;;;;;;;;;5066473;28;20361;-67
2022/04/08 04:57:15;;;;;;;;;;;;;;;;;;5065281;28;19970;-68
2022/04/08 04:59:41;;;;;;;;;;;;;;;;;;5063636;28;19989;-67
2022/04/08 05:02:08;;;;;;;;;;;;;;;;;;5065671;28;19986;-67
2022/04/08 05:04:34;;;;;;;;;;;;;;;;;;5066697;28;19987;-67
2022/04/08 05:07:00;;;;;;;;;;;;;;;;;;5054906;28;19975;-68
2022/04/08 05:09:26;;;;;;;;;;;;;;;;;;5057922;28;19972;-67
2022/04/08 05:11:52;;;;;;;;;;;;;;;;;;4703997;28;10000211;-68
2022/04/08 05:14:22;;;;;;;;;;;;;;;;;;5061153;28;20364;-68
2022/04/08 05:16:48;;;;;;;;;;;;;;;;;;5067341;28;20308;-68
2022/04/08 05:19:15;;;;;;;;;;;;;;;;;;5066503;28;19976;-67
2022/04/08 05:21:41;;;;;;;;;;;;;;;;;;5061563;28;19986;-70
2022/04/08 05:24:07;;;;;;;;;;;;;;;;;;5056804;28;19974;-67
2022/04/08 05:26:33;;;;;;;;;;;;;;;;;;5060650;28;19978;-68
2022/04/08 05:28:59;;;;;;;;;;;;;;;;;;5057199;28;19969;-67
2022/04/08 05:31:25;;;;;;;;;;;;;;;;;;5058476;28;19972;-68
2022/04/08 05:33:52;;;;;;;;;;;;;;;;;;5052816;28;20013;-68
2022/04/08 05:36:18;;;;;;;;;;;;;;;;;;5066819;28;19986;-67
2022/04/08 05:38:44;;;;;;;;;;;;;;;;;;5068690;28;19980;-68
2022/04/08 05:41:10;;;;;;;;;;;;;;;;;;5063646;28;19990;-67
2022/04/08 05:43:36;;;;;;;;;;;;;;;;;;5066812;28;20450;-68
2022/04/08 05:46:03;;;;;;;;;;;;;;;;;;5064296;28;20077;-68
2022/04/08 05:48:29;;;;;;;;;;;;;;;;;;5068617;28;19989;-68
2022/04/08 05:50:55;;;;;;;;;;;;;;;;;;5066200;28;19975;-72
2022/04/08 05:53:22;;;;;;;;;;;;;;;;;;5062324;28;19976;-69
2022/04/08 05:55:48;;;;;;;;;;;;;;;;;;5068347;28;19990;-69
2022/04/08 05:58:16;;;;;;;;;;;;;;;;;;5075262;28;20513;-68
2022/04/08 06:00:42;;;;;;;;;;;;;;;;;;5073130;28;19982;-69
2022/04/08 06:03:08;;;;;;;;;;;;;;;;;;5070371;28;19979;-68
2022/04/08 06:05:35;;;;;;;;;;;;;;;;;;5061912;28;20502;-68
2022/04/08 06:08:01;;;;;;;;;;;;;;;;;;5075176;28;20013;-67
2022/04/08 06:10:27;;;;;;;;;;;;;;;;;;5073264;28;19928;-67
2022/04/08 06:12:53;;;;;;;;;;;;;;;;;;5073972;28;20431;-68
2022/04/08 06:15:20;;;;;;;;;;;;;;;;;;5068264;28;19998;-67
2022/04/08 06:17:46;;;;;;;;;;;;;;;;;;5082811;28;19975;-67
2022/04/08 06:20:13;;;;;;;;;;;;;;;;;;5074842;28;19975;-67
2022/04/08 06:22:40;;;;;;;;;;;;;;;;;;5063974;28;20075;-68
2022/04/08 06:25:06;;;;;;;;;;;;;;;;;;5065199;28;20051;-68
2022/04/08 06:27:32;;;;;;;;;;;;;;;;;;5070436;28;20048;-68
2022/04/08 06:29:58;;;;;;;;;;;;;;;;;;5072596;28;19984;-68
2022/04/08 06:32:24;;;;;;;;;;;;;;;;;;5065729;28;19977;-68
2022/04/08 06:34:50;;;;;;;;;;;;;;;;;;5070788;28;20003;-68
2022/04/08 06:37:17;;;;;;;;;;;;;;;;;;5067056;28;19981;-68
2022/04/08 06:39:44;;;;;;;;;;;;;;;;;;5066943;28;20067;-68
2022/04/08 06:42:10;;;;;;;;;;;;;;;;;;5057583;28;20004;-68
2022/04/08 06:44:37;;;;;;;;;;;;;;;;;;5059115;28;20001;-68
2022/04/08 06:47:03;;;;;;;;;;;;;;;;;;5055434;28;20009;-69
2022/04/08 06:49:29;;;;;;;;;;;;;;;;;;5053947;28;19981;-68
2022/04/08 06:51:58;;;;;;;;;;;;;;;;;;5059436;28;19977;-68
2022/04/08 06:54:24;;;;;;;;;;;;;;;;;;4710928;28;10000039;-68
2022/04/08 06:56:50;;;;;;;;;;;;;;;;;;5060141;28;19985;-68
2022/04/08 06:59:17;;;;;;;;;;;;;;;;;;5070110;28;20012;-67
2022/04/08 07:01:43;;;;;;;;;;;;;;;;;;5067849;28;19989;-68
2022/04/08 07:04:09;;;;;;;;;;;;;;;;;;5067804;28;19984;-68
2022/04/08 07:06:35;;;;;;;;;;;;;;;;;;5072258;28;20399;-68
2022/04/08 07:09:01;;;;;;;;;;;;;;;;;;5071192;28;20170;-68
2022/04/08 07:11:27;;;;;;;;;;;;;;;;;;5066080;28;19984;-67
2022/04/08 07:13:54;;;;;;;;;;;;;;;;;;5066285;28;19988;-68
2022/04/08 07:16:20;;;;;;;;;;;;;;;;;;5064974;28;20012;-68
2022/04/08 07:18:46;;;;;;;;;;;;;;;;;;5066243;28;19963;-69
2022/04/08 07:21:12;;;;;;;;;;;;;;;;;;5070111;28;19965;-68
2022/04/08 07:23:38;;;;;;;;;;;;;;;;;;5065939;28;19964;-68
2022/04/08 07:26:04;;;;;;;;;;;;;;;;;;5057222;28;19972;-68
2022/04/08 07:28:32;;;;;;;;;;;;;;;;;;5062893;28;19962;-68
2022/04/08 07:30:58;;;;;;;;;;;;;;;;;;5067168;28;19958;-68
2022/04/08 07:33:24;;;;;;;;;;;;;;;;;;5070297;28;20466;-68
2022/04/08 07:35:50;;;;;;;;;;;;;;;;;;5070221;28;20397;-68
2022/04/08 07:38:16;;;;;;;;;;;;;;;;;;5070944;28;20059;-68
2022/04/08 07:40:43;;;;;;;;;;;;;;;;;;5070164;28;19946;-68
2022/04/08 07:43:09;;;;;;;;;;;;;;;;;;5066870;28;19959;-68
2022/04/08 07:45:36;;;;;;;;;;;;;;;;;;5068829;28;19990;-68
2022/04/08 07:48:02;;;;;;;;;;;;;;;;;;5071289;28;19943;-67
2022/04/08 07:50:28;;;;;;;;;;;;;;;;;;5069089;28;20469;-68
2022/04/08 07:52:55;;;;;;;;;;;;;;;;;;5095630;22;19936;-72
2022/04/08 07:55:23;;;;;;;;;;;;;;;;;;5044958;28;20002;-69
2022/04/08 07:57:49;;;;;;;;;;;;;;;;;;5048190;28;19963;-74
2022/04/08 08:00:15;;;;;;;;;;;;;;;;;;5049472;28;19977;-71
2022/04/08 08:02:41;;;;;;;;;;;;;;;;;;5050478;28;20001;-70
2022/04/08 08:05:08;;;;;;;;;;;;;;;;;;5049890;28;19960;-71
2022/04/08 08:07:35;;;;;;;;;;;;;;;;;;5047546;28;19960;-71
2022/04/08 08:10:01;;;;;;;;;;;;;;;;;;5048722;28;19968;-70
2022/04/08 08:12:27;;;;;;;;;;;;;;;;;;5038407;28;19964;-69
2022/04/08 08:14:54;;;;;;;;;;;;;;;;;;5048891;28;19984;-69
2022/04/08 08:17:20;;;;;;;;;;;;;;;;;;5055416;28;20037;-70
2022/04/08 08:19:46;;;;;;;;;;;;;;;;;;5048927;28;20072;-69
2022/04/08 08:22:12;;;;;;;;;;;;;;;;;;5046638;28;19974;-71
2022/04/08 08:24:39;;;;;;;;;;;;;;;;;;5044760;28;20582;-70
2022/04/08 08:27:05;;;;;;;;;;;;;;;;;;5045529;28;19976;-70
2022/04/08 08:29:31;;;;;;;;;;;;;;;;;;5037552;28;20016;-69
2022/04/08 08:31:57;;;;;;;;;;;;;;;;;;5037984;28;19973;-69
2022/04/08 08:34:23;;;;;;;;;;;;;;;;;;5040965;28;19970;-69
2022/04/08 08:36:51;;;;;;;;;;;;;;;;;;5049240;28;19974;-69
2022/04/08 08:39:17;;;;;;;;;;;;;;;;;;5048897;28;19956;-71
2022/04/08 08:41:43;;;;;;;;;;;;;;;;;;5051853;28;19974;-71
2022/04/08 08:44:10;;;;;;;;;;;;;;;;;;5050881;28;20261;-71
2022/04/08 08:46:36;;;;;;;;;;;;;;;;;;5032883;28;20325;-70
2022/04/08 08:49:02;;;;;;;;;;;;;;;;;;5041238;28;19946;-71
2022/04/08 08:51:28;;;;;;;;;;;;;;;;;;5040653;28;20403;-70
2022/04/08 08:53:55;;;;;;;;;;;;;;;;;;5041864;28;19955;-71
2022/04/08 08:56:21;;;;;;;;;;;;;;;;;;5041451;28;19998;-70
2022/04/08 08:58:47;;;;;;;;;;;;;;;;;;5041747;28;19961;-70
2022/04/08 09:01:14;;;;;;;;;;;;;;;;;;5047770;28;20012;-71
2022/04/08 09:03:41;;;;;;;;;;;;;;;;;;5049988;28;20173;-71
2022/04/08 09:06:08;;;;;;;;;;;;;;;;;;5048342;28;20020;-70
2022/04/08 09:08:34;;;;;;;;;;;;;;;;;;5049216;28;19959;-70
2022/04/08 09:11:00;;;;;;;;;;;;;;;;;;5028475;28;20188;-71
2022/04/08 09:13:28;;;;;;;;;;;;;;;;;;5043112;28;19975;-70
2022/04/08 09:15:54;;;;;;;;;;;;;;;;;;5043368;28;20002;-70
2022/04/08 09:18:20;;;;;;;;;;;;;;;;;;5048101;28;19984;-71
2022/04/08 09:20:46;;;;;;;;;;;;;;;;;;5047299;28;20162;-71
2022/04/08 09:23:12;;;;;;;;;;;;;;;;;;5047427;28;20442;-69
2022/04/08 09:25:39;;;;;;;;;;;;;;;;;;5046502;28;20003;-69
2022/04/08 09:28:05;;;;;;;;;;;;;;;;;;5041771;28;19971;-69
2022/04/08 09:30:31;;;;;;;;;;;;;;;;;;5046095;28;20361;-71
2022/04/08 09:32:58;;;;;;;;;;;;;;;;;;5053482;28;19970;-71
2022/04/08 09:35:24;;;;;;;;;;;;;;;;;;5047317;28;19989;-70
2022/04/08 09:37:50;;;;;;;;;;;;;;;;;;5047977;28;20423;-71
2022/04/08 09:40:17;;;;;;;;;;;;;;;;;;5046603;28;19975;-70
2022/04/08 09:42:43;;;;;;;;;;;;;;;;;;5046075;28;19985;-70
2022/04/08 09:45:10;;;;;;;;;;;;;;;;;;5048014;28;19995;-72
2022/04/08 09:47:36;;;;;;;;;;;;;;;;;;5045456;28;19974;-71
2022/04/08 09:50:02;;;;;;;;;;;;;;;;;;5047603;28;20409;-71
2022/04/08 09:52:28;;;;;;;;;;;;;;;;;;5046935;28;20639;-71
2022/04/08 09:54:55;;;;;;;;;;;;;;;;;;5040676;28;20355;-70
2022/04/08 09:57:21;;;;;;;;;;;;;;;;;;5045709;28;19976;-71
2022/04/08 09:59:48;;;;;;;;;;;;;;;;;;5048820;28;20427;-71
2022/04/08 10:02:14;;;;;;;;;;;;;;;;;;5045876;28;19993;-71
2022/04/08 10:04:40;;;;;;;;;;;;;;;;;;5049542;28;19986;-72
2022/04/08 10:07:06;;;;;;;;;;;;;;;;;;5047521;28;19959;-72
2022/04/08 10:09:32;;;;;;;;;;;;;;;;;;5046171;28;19961;-70
2022/04/08 10:11:59;;;;;;;;;;;;;;;;;;5047104;28;19975;-71
2022/04/08 10:14:25;;;;;;;;;;;;;;;;;;5047347;28;20208;-72
2022/04/08 10:16:52;;;;;;;;;;;;;;;;;;5046264;28;20301;-72
2022/04/08 10:19:18;;;;;;;;;;;;;;;;;;5046125;28;20011;-71
2022/04/08 10:21:44;;;;;;;;;;;;;;;;;;5046826;28;20357;-71
2022/04/08 10:24:13;;;;;;;;;;;;;;;;;;5046926;28;19996;-71
2022/04/08 10:26:39;;;;;;;;;;;;;;;;;;5049286;28;19976;-71
2022/04/08 10:29:05;;;;;;;;;;;;;;;;;;5043439;28;20352;-71
2022/04/08 10:31:31;;;;;;;;;;;;;;;;;;5045853;28;19951;-71
2022/04/08 10:33:57;;;;;;;;;;;;;;;;;;5049288;28;20337;-71
2022/04/08 10:36:24;;;;;;;;;;;;;;;;;;5048218;28;20219;-71
2022/04/08 10:38:50;;;;;;;;;;;;;;;;;;5051510;28;19993;-71
2022/04/08 10:41:16;;;;;;;;;;;;;;;;;;5049338;28;19966;-72
2022/04/08 10:43:42;;;;;;;;;;;;;;;;;;5050520;28;19970;-70
2022/04/08 10:46:08;;;;;;;;;;;;;;;;;;5046429;28;20048;-71
2022/04/08 10:48:35;;;;;;;;;;;;;;;;;;5050736;28;19975;-71
2022/04/08 10:51:01;;;;;;;;;;;;;;;;;;5050099;28;20407;-71
2022/04/08 10:53:27;;;;;;;;;;;;;;;;;;5048170;28;19989;-70
2022/04/08 10:55:54;;;;;;;;;;;;;;;;;;5045735;28;19993;-71
2022/04/08 10:58:20;;;;;;;;;;;;;;;;;;5048346;28;20295;-70
2022/04/08 11:00:46;;;;;;;;;;;;;;;;;;5048602;28;19954;-70
2022/04/08 11:03:12;;;;;;;;;;;;;;;;;;5050005;28;19966;-72
2022/04/08 11:05:39;;;;;;;;;;;;;;;;;;5046564;28;19965;-70
2022/04/08 11:08:05;;;;;;;;;;;;;;;;;;5048394;28;19945;-72
2022/04/08 11:10:31;;;;;;;;;;;;;;;;;;5050196;28;19950;-70
2022/04/08 11:12:57;;;;;;;;;;;;;;;;;;5050931;28;19976;-70
2022/04/08 11:15:24;;;;;;;;;;;;;;;;;;5049982;28;20489;-70
2022/04/08 11:17:50;;;;;;;;;;;;;;;;;;5050600;28;20347;-70
2022/04/08 11:20:16;;;;;;;;;;;;;;;;;;5050524;28;19991;-72
2022/04/08 11:22:42;;;;;;;;;;;;;;;;;;5050265;28;19992;-71
2022/04/08 11:25:08;;;;;;;;;;;;;;;;;;5050115;28;19995;-71
2022/04/08 11:27:34;;;;;;;;;;;;;;;;;;5040169;28;20018;-71
2022/04/08 11:30:01;;;;;;;;;;;;;;;;;;5045113;28;20408;-74
2022/04/08 11:32:27;;;;;;;;;;;;;;;;;;5049481;28;20430;-72
2022/04/08 11:34:55;;;;;;;;;;;;;;;;;;5053537;28;19924;-71
2022/04/08 11:37:21;;;;;;;;;;;;;;;;;;5049865;28;19956;-71
2022/04/08 11:39:47;;;;;;;;;;;;;;;;;;5049517;28;20383;-72
2022/04/08 11:42:16;;;;;;;;;;;;;;;;;;5048366;28;20443;-71
2022/04/08 11:44:42;;;;;;;;;;;;;;;;;;5049909;28;19968;-72
2022/04/08 11:47:09;;;;;;;;;;;;;;;;;;5046754;28;20278;-71
2022/04/08 11:49:35;;;;;;;;;;;;;;;;;;5048893;28;19980;-71
2022/04/08 11:52:01;;;;;;;;;;;;;;;;;;5049131;28;19970;-71
2022/04/08 11:54:27;;;;;;;;;;;;;;;;;;5048967;28;20720;-72
2022/04/08 11:56:54;;;;;;;;;;;;;;;;;;5049920;28;19980;-72
2022/04/08 11:59:20;;;;;;;;;;;;;;;;;;5052097;28;19955;-71
2022/04/08 12:01:46;;;;;;;;;;;;;;;;;;5050829;28;19950;-71
2022/04/08 12:04:12;;;;;;;;;;;;;;;;;;5051953;28;20058;-71
2022/04/08 12:06:38;;;;;;;;;;;;;;;;;;5054455;28;20335;-72
2022/04/08 12:09:04;;;;;;;;;;;;;;;;;;5052040;28;19924;-71
2022/04/08 12:11:31;;;;;;;;;;;;;;;;;;5047678;28;20028;-71
2022/04/08 12:13:57;;;;;;;;;;;;;;;;;;5052395;28;19964;-71
2022/04/08 12:16:23;;;;;;;;;;;;;;;;;;5047683;28;19925;-71
2022/04/08 12:18:49;;;;;;;;;;;;;;;;;;5048166;28;19947;-72
2022/04/08 12:21:16;;;;;;;;;;;;;;;;;;5053058;28;20003;-70
2022/04/08 12:23:42;;;;;;;;;;;;;;;;;;5051018;28;19961;-71
2022/04/08 12:26:10;;;;;;;;;;;;;;;;;;5044462;28;20331;-71
2022/04/08 12:28:37;;;;;;;;;;;;;;;;;;5048950;28;19985;-71
2022/04/08 12:31:03;;;;;;;;;;;;;;;;;;5055472;28;19982;-71
2022/04/08 12:33:29;;;;;;;;;;;;;;;;;;5049066;28;20451;-72
2022/04/08 12:35:55;;;;;;;;;;;;;;;;;;5056735;28;20000;-72
2022/04/08 12:38:22;;;;;;;;;;;;;;;;;;5055195;28;20002;-70
2022/04/08 12:40:48;;;;;;;;;;;;;;;;;;5050455;28;19982;-71
2022/04/08 12:43:14;;;;;;;;;;;;;;;;;;5053045;28;19987;-71
2022/04/08 12:45:40;;;;;;;;;;;;;;;;;;5047826;28;19991;-71
2022/04/08 12:48:07;;;;;;;;;;;;;;;;;;5050615;28;19971;-71
2022/04/08 12:50:33;;;;;;;;;;;;;;;;;;5049384;28;19947;-71
2022/04/08 12:53:00;;;;;;;;;;;;;;;;;;5051144;28;20031;-71
2022/04/08 12:55:26;;;;;;;;;;;;;;;;;;5039528;28;19992;-72
2022/04/08 12:57:52;;;;;;;;;;;;;;;;;;5048360;28;19980;-71
2022/04/08 13:00:18;;;;;;;;;;;;;;;;;;5047133;28;20069;-71
2022/04/08 13:02:45;;;;;;;;;;;;;;;;;;5045248;28;20101;-70
2022/04/08 13:05:12;;;;;;;;;;;;;;;;;;5048623;28;19972;-71
2022/04/08 13:07:38;;;;;;;;;;;;;;;;;;5046602;28;20045;-70
2022/04/08 13:10:04;;;;;;;;;;;;;;;;;;5046783;28;19953;-71
2022/04/08 13:12:30;;;;;;;;;;;;;;;;;;5043009;28;19956;-71
2022/04/08 13:14:56;;;;;;;;;;;;;;;;;;5043096;28;19986;-70
2022/04/08 13:17:22;;;;;;;;;;;;;;;;;;5059782;28;19964;-71
2022/04/08 13:19:48;;;;;;;;;;;;;;;;;;5047222;28;19951;-71
2022/04/08 13:22:16;;;;;;;;;;;;;;;;;;5042738;28;19961;-71
2022/04/08 13:24:42;;;;;;;;;;;;;;;;;;5049424;28;19965;-70
2022/04/08 13:27:08;;;;;;;;;;;;;;;;;;5047527;28;19961;-73
2022/04/08 13:29:34;;;;;;;;;;;;;;;;;;5050652;28;20032;-72
2022/04/08 13:32:00;;;;;;;;;;;;;;;;;;5048713;28;19986;-72
2022/04/08 13:34:27;;;;;;;;;;;;;;;;;;5050663;28;19996;-71
2022/04/08 13:36:53;;;;;;;;;;;;;;;;;;5054472;28;20451;-71
2022/04/08 13:39:19;;;;;;;;;;;;;;;;;;5051872;28;19982;-72
2022/04/08 13:41:48;;;;;;;;;;;;;;;;;;5050273;28;19982;-73
2022/04/08 13:44:17;;;;;;;;;;;;;;;;;;5056586;28;20425;-71
2022/04/08 13:46:43;;;;;;;;;;;;;;;;;;5039988;28;19983;-72
2022/04/08 13:49:09;;;;;;;;;;;;;;;;;;5047287;28;19980;-71
2022/04/08 13:51:36;;;;;;;;;;;;;;;;;;5049159;28;19943;-72
2022/04/08 13:54:02;;;;;;;;;;;;;;;;;;5049489;28;19966;-71
2022/04/08 13:56:28;;;;;;;;;;;;;;;;;;5063783;22;19967;-68
2022/04/08 13:58:55;;;;;;;;;;;;;;;;;;5051427;28;19962;-68
2022/04/08 14:01:22;;;;;;;;;;;;;;;;;;5050044;28;19969;-69
2022/04/08 14:03:49;;;;;;;;;;;;;;;;;;5051413;28;19975;-68
2022/04/08 14:06:15;;;;;;;;;;;;;;;;;;5037999;28;20004;-69
2022/04/08 14:08:41;;;;;;;;;;;;;;;;;;5030807;28;19961;-68
2022/04/08 14:11:08;;;;;;;;;;;;;;;;;;5037904;28;19970;-69
2022/04/08 14:13:34;;;;;;;;;;;;;;;;;;5029371;28;19963;-68
2022/04/08 14:16:01;;;;;;;;;;;;;;;;;;5029770;28;20007;-71
2022/04/08 14:18:27;;;;;;;;;;;;;;;;;;5030683;28;19963;-71
2022/04/08 14:20:54;;;;;;;;;;;;;;;;;;5031972;28;20431;-71
2022/04/08 14:23:20;;;;;;;;;;;;;;;;;;5032541;28;20007;-70
2022/04/08 14:25:48;;;;;;;;;;;;;;;;;;5034036;28;20053;-71
2022/04/08 14:28:14;;;;;;;;;;;;;;;;;;5036486;28;20048;-72
2022/04/08 14:30:41;;;;;;;;;;;;;;;;;;5034122;28;19974;-71
2022/04/08 14:33:07;;;;;;;;;;;;;;;;;;5040182;28;20373;-71
2022/04/08 14:35:33;;;;;;;;;;;;;;;;;;5034815;28;19993;-71
2022/04/08 14:37:59;;;;;;;;;;;;;;;;;;5032601;28;19970;-70
2022/04/08 14:40:26;;;;;;;;;;;;;;;;;;5035019;28;19980;-70
2022/04/08 14:42:52;;;;;;;;;;;;;;;;;;5040391;28;19960;-70
2022/04/08 14:45:18;;;;;;;;;;;;;;;;;;5045586;28;19986;-71
2022/04/08 14:47:44;;;;;;;;;;;;;;;;;;5037348;28;19968;-70
2022/04/08 14:50:11;;;;;;;;;;;;;;;;;;5038181;28;20466;-70
2022/04/08 14:52:37;;;;;;;;;;;;;;;;;;5040926;28;20360;-70
2022/04/08 14:55:03;;;;;;;;;;;;;;;;;;5040369;28;19987;-70
2022/04/08 14:57:29;;;;;;;;;;;;;;;;;;5041178;28;19981;-71
2022/04/08 14:59:55;;;;;;;;;;;;;;;;;;5035264;28;20056;-71
2022/04/08 15:02:21;;;;;;;;;;;;;;;;;;5039864;28;19982;-72
2022/04/08 15:04:48;;;;;;;;;;;;;;;;;;5042440;28;19989;-71
2022/04/08 15:07:14;;;;;;;;;;;;;;;;;;5048724;28;19975;-72
2022/04/08 15:09:40;;;;;;;;;;;;;;;;;;5045229;28;19925;-71
2022/04/08 15:12:06;;;;;;;;;;;;;;;;;;5042825;28;19968;-70
2022/04/08 15:14:32;;;;;;;;;;;;;;;;;;5035136;28;19968;-71
2022/04/08 15:16:58;;;;;;;;;;;;;;;;;;5029775;28;19949;-71
2022/04/08 15:19:24;;;;;;;;;;;;;;;;;;5034224;28;20407;-70
2022/04/08 15:21:51;;;;;;;;;;;;;;;;;;5038965;28;20149;-70
2022/04/08 15:24:17;;;;;;;;;;;;;;;;;;5041267;28;19976;-71
2022/04/08 15:26:43;;;;;;;;;;;;;;;;;;5038832;28;20308;-70
2022/04/08 15:29:09;;;;;;;;;;;;;;;;;;5036199;28;19942;-70
2022/04/08 15:31:35;;;;;;;;;;;;;;;;;;5040478;28;19937;-71
2022/04/08 15:34:01;;;;;;;;;;;;;;;;;;5036087;28;20201;-71
2022/04/08 15:36:28;;;;;;;;;;;;;;;;;;5039429;28;19936;-71
2022/04/08 15:38:54;;;;;;;;;;;;;;;;;;5035532;28;20319;-71
2022/04/08 15:41:20;;;;;;;;;;;;;;;;;;5041605;28;21008;-71
2022/04/08 15:43:46;;;;;;;;;;;;;;;;;;5037870;28;20352;-71
2022/04/08 15:46:13;;;;;;;;;;;;;;;;;;5042113;28;20007;-71
2022/04/08 15:48:39;;;;;;;;;;;;;;;;;;5039971;28;19937;-70
2022/04/08 15:51:05;;;;;;;;;;;;;;;;;;5038970;28;19948;-71
2022/04/08 15:53:31;;;;;;;;;;;;;;;;;;5039388;28;19960;-71
2022/04/08 15:55:57;;;;;;;;;;;;;;;;;;5035527;28;19968;-71
2022/04/08 15:58:24;;;;;;;;;;;;;;;;;;5039974;28;19951;-71
2022/04/08 16:00:50;;;;;;;;;;;;;;;;;;5037759;28;19952;-70
2022/04/08 16:03:17;;;;;;;;;;;;;;;;;;5042866;28;20141;-71
2022/04/08 16:05:43;;;;;;;;;;;;;;;;;;5042656;28;19957;-73
2022/04/08 16:08:09;;;;;;;;;;;;;;;;;;5047158;28;19963;-72
2022/04/08 16:10:35;;;;;;;;;;;;;;;;;;5036022;28;19954;-71
2022/04/08 16:13:02;;;;;;;;;;;;;;;;;;5036882;28;19953;-71
2022/04/08 16:15:28;;;;;;;;;;;;;;;;;;5035372;28;19960;-71
2022/04/08 16:17:54;;;;;;;;;;;;;;;;;;5040249;28;19947;-72
2022/04/08 16:20:20;;;;;;;;;;;;;;;;;;5038102;28;19955;-71
2022/04/08 16:22:46;;;;;;;;;;;;;;;;;;5046323;28;19954;-72
2022/04/08 16:25:12;;;;;;;;;;;;;;;;;;5051746;28;19965;-71
2022/04/08 16:27:38;;;;;;;;;;;;;;;;;;5045827;28;19974;-71
2022/04/08 16:30:05;;;;;;;;;;;;;;;;;;4351131;28;10000822;-72
2022/04/08 16:32:31;;;;;;;;;;;;;;;;;;5048981;28;20030;-72
2022/04/08 16:34:57;;;;;;;;;;;;;;;;;;5041360;28;19972;-73
2022/04/08 16:37:23;;;;;;;;;;;;;;;;;;5043208;28;19956;-71
2022/04/08 16:39:49;;;;;;;;;;;;;;;;;;5055031;28;19958;-71